Time;durP1;ratioP1;P1;durP2;ratioP2;P2;SDS_P1;SDS_P2;PMS_P1;PMS_P2;Temp;Humidity;BMP_temperature;BMP_pressure;BME280_temperature;BME280_humidity;BME280_pressure;Samples;Min_cycle;Max_cycle;Signal;HPM_P1;HPM_P2
2022/04/05 00:02:24;;;;;;;19.63;13.32;;;102.50;2227.20;;;;;;5038097;28;20475;-59
2022/04/05 00:04:50;;;;;;;28.17;24.73;;;102.60;2227.20;;;;;;5039024;28;20017;-59
2022/04/05 00:07:16;;;;;;;24.33;15.52;;;102.60;2227.20;;;;;;5039682;28;20028;-53
2022/04/05 00:09:42;;;;;;;26.30;17.27;;;102.60;2227.20;;;;;;5037686;28;20087;-52
2022/04/05 00:12:08;;;;;;;25.90;16.30;;;102.50;2227.20;;;;;;5039153;28;20025;-58
2022/04/05 00:14:34;;;;;;;42.08;26.67;;;102.50;2227.20;;;;;;5039266;28;20037;-59
2022/04/05 00:17:02;;;;;;;24.38;17.00;;;102.50;2227.20;;;;;;5038228;28;20017;-58
2022/04/05 00:19:28;;;;;;;24.50;15.88;;;102.50;2227.20;;;;;;5040787;28;20370;-52
2022/04/05 00:21:54;;;;;;;19.75;14.50;;;102.60;2227.20;;;;;;5049866;28;20029;-53
2022/04/05 00:24:20;;;;;;;22.10;14.13;;;102.50;2227.20;;;;;;5050173;28;20028;-52
2022/04/05 00:26:46;;;;;;;24.08;17.05;;;102.50;2227.20;;;;;;5043051;28;20115;-57
2022/04/05 00:29:12;;;;;;;35.13;22.52;;;102.50;2227.20;;;;;;5034824;28;20120;-52
2022/04/05 00:31:37;;;;;;;29.70;21.67;;;102.50;2227.20;;;;;;5039057;28;20033;-53
2022/04/05 00:34:03;;;;;;;27.88;16.45;;;102.50;2227.20;;;;;;5040831;28;20025;-52
2022/04/05 00:36:29;;;;;;;23.75;16.05;;;102.60;2227.20;;;;;;5040390;28;20109;-52
2022/04/05 00:38:55;;;;;;;24.05;16.40;;;102.60;2227.20;;;;;;5041759;28;20057;-53
2022/04/05 00:41:20;;;;;;;24.20;14.50;;;102.50;2227.20;;;;;;5039954;28;20104;-53
2022/04/05 00:43:46;;;;;;;26.27;14.32;;;102.40;2227.20;;;;;;5042069;28;20029;-58
2022/04/05 00:46:12;;;;;;;24.90;14.45;;;102.40;2227.20;;;;;;5041438;28;20502;-54
2022/04/05 00:48:57;;;;;;;24.48;14.70;;;77.70;2227.20;;;;;;5049872;28;20025;-54
2022/04/05 00:51:24;;;;;;;20.20;13.80;;;77.60;2227.20;;;;;;5049642;28;20073;-55
2022/04/05 00:53:57;;;;;;;21.83;13.68;;;77.60;2227.20;;;;;;5049704;28;20033;-59
2022/04/05 00:56:26;;;;;;;18.65;11.43;;;77.60;2227.20;;;;;;5048268;28;20360;-53
2022/04/05 00:58:54;;;;;;;24.02;14.98;;;77.50;2227.20;;;;;;5049633;28;20029;-55
2022/04/05 01:01:21;;;;;;;23.38;13.52;;;77.50;2227.20;;;;;;5050004;28;20029;-59
2022/04/05 01:03:49;;;;;;;21.65;13.25;;;77.40;2227.20;;;;;;5049769;28;20061;-52
2022/04/05 01:06:28;;;;;;;18.63;13.38;;;77.40;2227.20;;;;;;5051102;28;20053;-60
2022/04/05 01:08:56;;;;;;;21.67;13.07;;;77.40;2227.20;;;;;;5053370;28;20057;-52
2022/04/05 01:11:21;;;;;;;18.65;12.30;;;77.30;2227.20;;;;;;5053581;28;20091;-61
2022/04/05 01:13:48;;;;;;;19.48;11.85;;;77.30;2227.20;;;;;;5053486;28;20044;-60
2022/04/05 01:16:14;;;;;;;14.95;11.45;;;77.30;2227.20;;;;;;5053357;28;20094;-53
2022/04/05 01:18:40;;;;;;;20.67;12.48;;;77.40;2227.20;;;;;;5053614;28;20036;-59
2022/04/05 01:21:06;;;;;;;24.60;14.07;;;77.20;2227.20;;;;;;5053218;28;20033;-53
2022/04/05 01:23:32;;;;;;;20.90;12.25;;;77.30;2227.20;;;;;;5053429;28;20028;-54
2022/04/05 01:25:58;;;;;;;16.73;11.43;;;77.30;2227.20;;;;;;5053262;28;20029;-57
2022/04/05 01:28:24;;;;;;;22.50;12.57;;;77.20;2227.20;;;;;;5052852;28;20044;-53
2022/04/05 01:30:51;;;;;;;20.85;11.88;;;77.20;2227.20;;;;;;5053342;28;20463;-60
2022/04/05 01:33:17;;;;;;;16.65;11.55;;;77.20;2227.20;;;;;;5053002;28;20036;-60
2022/04/05 01:35:43;;;;;;;20.73;11.82;;;77.20;2227.20;;;;;;5052887;28;20029;-53
2022/04/05 01:38:10;;;;;;;14.48;10.93;;;77.30;2227.20;;;;;;5052776;28;20021;-56
2022/04/05 01:40:37;;;;;;;18.67;9.90;;;77.40;2227.20;;;;;;5053007;28;20049;-52
2022/04/05 01:43:03;;;;;;;16.08;10.23;;;77.60;2227.20;;;;;;5052977;28;20039;-52
2022/04/05 01:45:29;;;;;;;14.82;9.68;;;77.70;2227.20;;;;;;5052742;28;20025;-58
2022/04/05 01:47:55;;;;;;;14.02;9.95;;;102.40;2227.20;;;;;;5052690;28;20062;-52
2022/04/05 01:50:21;;;;;;;13.65;9.25;;;102.40;2227.20;;;;;;5052875;28;20029;-52
2022/04/05 01:52:46;;;;;;;13.43;9.45;;;102.40;2227.20;;;;;;5052465;28;20435;-52
2022/04/05 01:55:12;;;;;;;13.63;8.98;;;102.40;2227.20;;;;;;5052629;28;20051;-54
2022/04/05 01:57:38;;;;;;;13.98;9.70;;;102.40;2227.20;;;;;;5052669;28;20025;-53
2022/04/05 02:00:08;;;;;;;13.82;9.70;;;102.40;2227.20;;;;;;5052692;28;20036;-52
2022/04/05 02:02:34;;;;;;;17.20;11.25;;;102.40;2227.20;;;;;;5052668;28;20025;-53
2022/04/05 02:05:00;;;;;;;15.38;10.45;;;77.70;2227.20;;;;;;5052480;28;20494;-59
2022/04/05 02:07:26;;;;;;;17.27;11.25;;;77.70;2227.20;;;;;;5052189;28;20028;-59
2022/04/05 02:09:52;;;;;;;16.00;10.05;;;77.70;2227.20;;;;;;5052434;28;20025;-55
2022/04/05 02:12:18;;;;;;;21.65;13.55;;;77.70;2227.20;;;;;;5052371;28;20032;-58
2022/04/05 02:14:45;;;;;;;20.30;12.23;;;77.70;2227.20;;;;;;5051991;28;20032;-59
2022/04/05 02:17:11;;;;;;;17.27;11.35;;;77.70;2227.20;;;;;;5052230;28;20481;-58
2022/04/05 02:19:38;;;;;;;17.25;10.90;;;77.70;2227.20;;;;;;5052279;28;20033;-57
2022/04/05 02:22:04;;;;;;;16.30;10.85;;;77.60;2227.20;;;;;;5052104;28;20078;-53
2022/04/05 02:24:31;;;;;;;16.75;10.80;;;77.50;2227.20;;;;;;5052219;28;20060;-59
2022/04/05 02:26:56;;;;;;;21.67;11.70;;;77.50;2227.20;;;;;;5052061;28;20087;-60
2022/04/05 02:29:22;;;;;;;16.42;10.30;;;77.50;2227.20;;;;;;5051710;28;20057;-60
2022/04/05 02:31:48;;;;;;;14.88;9.65;;;77.60;2227.20;;;;;;5052135;28;20025;-60
2022/04/05 02:34:14;;;;;;;13.30;8.70;;;77.70;2227.20;;;;;;5051596;28;20044;-53
2022/04/05 02:36:40;;;;;;;11.35;8.00;;;102.40;2227.20;;;;;;5051998;28;20105;-53
2022/04/05 02:39:06;;;;;;;15.95;9.75;;;102.40;2227.20;;;;;;5051806;28;20067;-53
2022/04/05 02:41:32;;;;;;;12.63;8.43;;;102.40;2227.20;;;;;;5052091;28;20036;-52
2022/04/05 02:43:59;;;;;;;15.00;9.88;;;102.40;2227.20;;;;;;5051859;28;20028;-58
2022/04/05 02:46:25;;;;;;;16.00;11.20;;;102.40;2227.20;;;;;;5051647;28;20020;-58
2022/04/05 02:48:54;;;;;;;16.80;10.55;;;77.70;2227.20;;;;;;5051759;28;20040;-59
2022/04/05 02:51:21;;;;;;;18.30;13.43;;;77.70;2227.20;;;;;;5051674;28;20116;-58
2022/04/05 02:53:47;;;;;;;16.15;12.50;;;77.60;2227.20;;;;;;5051140;28;20056;-52
2022/04/05 02:56:13;;;;;;;15.07;10.65;;;77.60;2227.20;;;;;;5051612;28;20017;-53
2022/04/05 02:58:40;;;;;;;12.98;9.57;;;77.60;2227.20;;;;;;5051490;28;20033;-52
2022/04/05 03:01:06;;;;;;;14.50;9.52;;;77.50;2227.20;;;;;;5051265;28;20037;-56
2022/04/05 03:03:32;;;;;;;14.88;9.38;;;77.30;2227.20;;;;;;5050304;28;20041;-59
2022/04/05 03:05:58;;;;;;;17.02;9.98;;;77.30;2227.20;;;;;;5051506;28;20029;-59
2022/04/05 03:08:24;;;;;;;14.75;9.25;;;77.40;2227.20;;;;;;5051107;28;20037;-52
2022/04/05 03:10:50;;;;;;;17.35;9.25;;;77.40;2227.20;;;;;;5051468;28;20025;-57
2022/04/05 03:13:16;;;;;;;15.20;9.10;;;77.40;2227.20;;;;;;5050957;28;20137;-57
2022/04/05 03:15:42;;;;;;;13.20;9.52;;;77.40;2227.20;;;;;;5051177;28;20032;-59
2022/04/05 03:18:08;;;;;;;11.73;8.40;;;77.40;2227.20;;;;;;5051261;28;20021;-57
2022/04/05 03:20:34;;;;;;;15.30;9.57;;;77.30;2227.20;;;;;;5051080;28;20523;-58
2022/04/05 03:23:00;;;;;;;12.05;8.88;;;77.30;2227.20;;;;;;5051046;28;20028;-52
2022/04/05 03:25:27;;;;;;;15.30;10.20;;;77.30;2227.20;;;;;;5050733;28;20029;-59
2022/04/05 03:27:53;;;;;;;14.07;8.52;;;77.20;2227.20;;;;;;5050569;28;20041;-55
2022/04/05 03:30:21;;;;;;;14.27;9.13;;;77.20;2227.20;;;;;;5050353;28;20517;-58
2022/04/05 03:32:47;;;;;;;15.10;9.15;;;77.20;2227.20;;;;;;5050945;28;20028;-52
2022/04/05 03:35:13;;;;;;;13.57;8.30;;;77.20;2227.20;;;;;;5050762;28;20036;-57
2022/04/05 03:37:39;;;;;;;11.68;8.38;;;77.20;2227.20;;;;;;5050899;28;20387;-53
2022/04/05 03:40:06;;;;;;;17.30;8.38;;;77.30;2227.20;;;;;;5050864;28;20029;-57
2022/04/05 03:42:32;;;;;;;15.32;9.15;;;77.30;2227.20;;;;;;5050800;28;20154;-53
2022/04/05 03:44:59;;;;;;;15.80;8.95;;;77.30;2227.20;;;;;;5050608;28;20032;-58
2022/04/05 03:47:26;;;;;;;13.73;8.93;;;77.30;2227.20;;;;;;5050341;28;20033;-52
2022/04/05 03:49:52;;;;;;;12.13;10.50;;;77.30;2227.20;;;;;;5050219;28;20025;-54
2022/04/05 03:52:19;;;;;;;13.07;8.70;;;77.30;2227.20;;;;;;5050476;28;20033;-59
2022/04/05 03:54:45;;;;;;;14.20;8.27;;;77.30;2227.20;;;;;;5050193;28;20104;-52
2022/04/05 03:57:11;;;;;;;15.13;8.88;;;77.30;2227.20;;;;;;5050447;28;20067;-52
2022/04/05 03:59:37;;;;;;;16.05;10.60;;;77.30;2227.20;;;;;;5050320;28;20028;-55
2022/04/05 04:02:03;;;;;;;20.70;13.82;;;77.30;2227.20;;;;;;5050278;28;20490;-58
2022/04/05 04:04:28;;;;;;;15.48;9.70;;;77.30;2227.20;;;;;;5050153;28;20099;-58
2022/04/05 04:06:54;;;;;;;16.58;11.43;;;77.30;2227.20;;;;;;5050177;28;20025;-59
2022/04/05 04:09:20;;;;;;;12.10;6.88;;;77.40;2227.20;;;;;;5050353;28;20021;-58
2022/04/05 04:11:46;;;;;;;27.88;25.10;;;77.50;2227.20;;;;;;5050170;28;20103;-57
2022/04/05 04:14:12;;;;;;;32.30;29.30;;;77.50;2227.20;;;;;;5050173;28;20032;-58
2022/04/05 04:16:38;;;;;;;13.73;9.77;;;77.40;2227.20;;;;;;5050236;28;20029;-54
2022/04/05 04:19:04;;;;;;;9.02;7.05;;;77.30;2227.20;;;;;;5050182;28;20033;-58
2022/04/05 04:21:30;;;;;;;11.60;7.15;;;77.20;2227.20;;;;;;5050310;28;20119;-59
2022/04/05 04:23:55;;;;;;;88.30;46.53;;;77.20;2227.20;;;;;;5050006;28;20467;-59
2022/04/05 04:26:21;;;;;;;127.53;72.03;;;77.30;2227.20;;;;;;5050023;28;20460;-59
2022/04/05 04:28:51;;;;;;;184.85;100.07;;;77.40;2227.20;;;;;;5049758;28;20044;-54
2022/04/05 04:31:17;;;;;;;41.13;23.35;;;77.50;2227.20;;;;;;5049735;28;20022;-56
2022/04/05 04:33:43;;;;;;;17.88;8.45;;;77.50;2227.20;;;;;;5049807;28;20051;-52
2022/04/05 04:36:09;;;;;;;14.55;9.30;;;77.60;2227.20;;;;;;5050032;28;20021;-53
2022/04/05 04:38:35;;;;;;;11.10;7.50;;;77.70;2227.20;;;;;;5049621;28;20029;-52
2022/04/05 04:41:01;;;;;;;19.30;10.68;;;77.70;2227.20;;;;;;5051345;28;20083;-52
2022/04/05 04:43:27;;;;;;;61.45;46.58;;;102.50;2227.20;;;;;;5053834;28;20036;-59
2022/04/05 04:45:54;;;;;;;137.27;97.50;;;102.60;2227.20;;;;;;5053592;28;20036;-53
2022/04/05 04:48:20;;;;;;;120.90;81.38;;;102.70;2227.20;;;;;;5053957;28;20021;-59
2022/04/05 04:50:47;;;;;;;83.25;49.50;;;102.70;2227.20;;;;;;5053714;28;20533;-58
2022/04/05 04:53:13;;;;;;;74.20;44.58;;;102.80;2227.20;;;;;;5053539;28;20024;-58
2022/04/05 04:55:39;;;;;;;49.55;33.75;;;102.90;2227.20;;;;;;5053992;28;20121;-58
2022/04/05 04:58:05;;;;;;;41.45;26.02;;;103.00;2227.20;;;;;;5053548;28;20037;-52
2022/04/05 05:00:31;;;;;;;37.83;21.98;;;103.00;2227.20;;;;;;5053526;28;20040;-58
2022/04/05 05:02:57;;;;;;;24.08;15.07;;;103.00;2227.20;;;;;;5053565;28;20032;-53
2022/04/05 05:05:22;;;;;;;19.65;10.88;;;103.10;2227.20;;;;;;5053544;28;20506;-52
2022/04/05 05:07:51;;;;;;;20.60;12.65;;;179.40;2252.80;;;;;;5053767;28;20397;-52
2022/04/05 05:10:18;;;;;;;18.73;11.93;;;230.70;2124.80;;;;;;5053384;28;20020;-60
2022/04/05 05:12:44;;;;;;;18.45;12.30;;;281.90;1868.80;;;;;;5053414;28;20052;-53
2022/04/05 05:15:16;;;;;;;16.27;11.70;;;281.70;1843.20;;;;;;5053524;28;20033;-52
2022/04/05 05:17:43;;;;;;;24.67;14.23;;;307.60;1766.40;;;;;;5053241;28;20029;-55
2022/04/05 05:20:10;;;;;;;29.45;15.43;;;333.10;1689.60;;;;;;5053455;28;20021;-52
2022/04/05 05:22:35;;;;;;;14.13;10.10;;;333.50;1638.40;;;;;;5048498;28;20104;-53
2022/04/05 05:25:02;;;;;;;19.95;13.55;;;333.10;1664.00;;;;;;5044695;28;20446;-52
2022/04/05 05:27:30;;;;;;;12.30;8.65;;;358.40;1612.80;;;;;;5053006;28;20103;-59
2022/04/05 05:29:56;;;;;;;13.73;8.90;;;358.40;1587.20;;;;;;5038970;28;20045;-53
2022/04/05 05:32:22;;;;;;;18.45;12.05;;;384.60;1459.20;;;;;;5042607;28;20107;-53
2022/04/05 05:34:48;;;;;;;33.55;14.30;;;359.30;1484.80;;;;;;5041654;28;20041;-57
2022/04/05 05:37:14;;;;;;;21.25;11.70;;;333.60;1587.20;;;;;;5042173;28;20033;-58
2022/04/05 05:39:40;;;;;;;26.10;17.23;;;358.60;1561.60;;;;;;5047225;28;20029;-60
2022/04/05 05:42:07;;;;;;;36.05;28.25;;;358.90;1536.00;;;;;;5053041;28;20083;-59
2022/04/05 05:44:33;;;;;;;48.33;34.75;;;358.70;1536.00;;;;;;5052767;28;20025;-59
2022/04/05 05:46:59;;;;;;;51.42;38.25;;;384.60;1433.60;;;;;;5053020;28;20097;-60
2022/04/05 05:49:25;;;;;;;32.97;25.35;;;410.40;1382.40;;;;;;5052725;28;20495;-61
2022/04/05 05:51:51;;;;;;;18.63;14.82;;;409.80;1433.60;;;;;;5052103;28;20053;-54
2022/04/05 05:54:18;;;;;;;13.05;10.77;;;409.60;1408.00;;;;;;5052210;28;20044;-62
2022/04/05 05:56:43;;;;;;;24.90;20.33;;;384.10;1433.60;;;;;;5052600;28;20115;-54
2022/04/05 05:59:09;;;;;;;33.55;16.15;;;410.00;1408.00;;;;;;5052648;28;20075;-54
2022/04/05 06:01:35;;;;;;;19.58;14.02;;;384.80;1408.00;;;;;;5052245;28;20031;-61
2022/04/05 06:04:01;;;;;;;32.75;25.35;;;435.60;1356.80;;;;;;5052596;28;20525;-54
2022/04/05 06:06:29;;;;;;;37.70;27.38;;;512.10;1203.20;;;;;;5052209;28;20071;-55
2022/04/05 06:08:59;;;;;;;27.83;24.48;;;563.40;1152.00;;;;;;5052273;28;20025;-54
2022/04/05 06:11:25;;;;;;;29.40;21.77;;;564.00;1075.20;;;;;;5052385;28;20052;-58
2022/04/05 06:13:52;;;;;;;40.22;31.67;;;564.10;1049.60;;;;;;5052421;28;20029;-62
2022/04/05 06:16:21;;;;;;;44.28;29.75;;;564.00;1075.20;;;;;;5052234;28;20116;-54
2022/04/05 06:18:47;;;;;;;35.00;29.23;;;614.90;998.40;;;;;;5052238;28;20383;-54
2022/04/05 06:21:16;;;;;;;32.45;25.85;;;640.60;947.20;;;;;;5052113;28;20492;-56
2022/04/05 06:23:43;;;;;;;16.20;14.60;;;691.20;896.00;;;;;;5052157;28;20025;-57
2022/04/05 06:26:09;;;;;;;29.27;26.25;;;666.20;921.60;;;;;;5052221;28;20052;-56
2022/04/05 06:28:35;;;;;;;35.13;31.50;;;666.20;896.00;;;;;;5051727;28;20491;-55
2022/04/05 06:31:00;;;;;;;19.42;17.63;;;691.80;896.00;;;;;;5052086;28;20028;-55
2022/04/05 06:33:26;;;;;;;15.90;14.30;;;717.50;844.80;;;;;;5051640;28;20025;-62
2022/04/05 06:35:54;;;;;;;22.92;20.52;;;742.90;819.20;;;;;;5052030;28;20025;-63
2022/04/05 06:38:20;;;;;;;34.55;23.05;;;743.30;819.20;;;;;;5051817;28;20463;-55
2022/04/05 06:40:46;;;;;;;71.57;65.70;;;742.40;844.80;;;;;;5051689;28;20031;-64
2022/04/05 06:43:14;;;;;;;59.70;52.10;;;742.40;844.80;;;;;;5051861;28;20029;-56
2022/04/05 06:45:41;;;;;;;60.75;54.83;;;768.10;819.20;;;;;;5051788;28;20032;-56
2022/04/05 06:48:07;;;;;;;52.75;47.38;;;768.60;793.60;;;;;;5051667;28;20027;-63
2022/04/05 06:50:33;;;;;;;52.60;47.25;;;794.00;819.20;;;;;;5051497;28;20201;-56
2022/04/05 06:53:00;;;;;;;50.80;45.53;;;819.60;768.00;;;;;;5051424;28;20032;-55
2022/04/05 06:55:27;;;;;;;66.05;59.97;;;819.90;768.00;;;;;;5051303;28;20433;-56
2022/04/05 06:57:53;;;;;;;59.88;54.08;;;794.20;819.20;;;;;;5051361;28;20454;-54
2022/04/05 07:00:22;;;;;;;52.63;47.53;;;819.50;793.60;;;;;;5051441;28;20475;-55
2022/04/05 07:02:48;;;;;;;76.85;68.50;;;819.90;768.00;;;;;;5051054;28;20025;-64
2022/04/05 07:05:14;;;;;;;81.28;73.35;;;794.50;793.60;;;;;;5050614;28;20478;-55
2022/04/05 07:07:40;;;;;;;108.20;96.50;;;819.20;793.60;;;;;;5051197;28;20036;-64
2022/04/05 07:10:09;;;;;;;105.65;91.45;;;768.20;819.20;;;;;;5051198;28;20083;-55
2022/04/05 07:12:35;;;;;;;101.40;89.95;;;768.30;844.80;;;;;;5051149;28;20032;-56
2022/04/05 07:15:01;;;;;;;96.50;84.55;;;794.00;844.80;;;;;;5051285;28;20033;-64
2022/04/05 07:17:27;;;;;;;86.25;76.88;;;768.90;819.20;;;;;;5051156;28;20128;-58
2022/04/05 07:19:53;;;;;;;87.00;77.65;;;794.50;793.60;;;;;;5050893;28;20455;-60
2022/04/05 07:22:19;;;;;;;96.75;86.63;;;819.50;819.20;;;;;;5050891;28;20100;-56
2022/04/05 07:24:46;;;;;;;88.90;79.35;;;844.80;793.60;;;;;;5050605;28;20068;-65
2022/04/05 07:27:12;;;;;;;82.97;74.40;;;845.50;793.60;;;;;;5050748;28;20053;-57
2022/04/05 07:29:38;;;;;;;83.68;74.70;;;845.50;768.00;;;;;;5050848;28;20410;-61
2022/04/05 07:32:04;;;;;;;93.85;83.65;;;819.50;793.60;;;;;;5050861;28;20024;-63
2022/04/05 07:34:30;;;;;;;78.60;70.38;;;820.10;768.00;;;;;;5050708;28;20122;-64
2022/04/05 07:36:56;;;;;;;81.00;72.15;;;794.50;819.20;;;;;;5050551;28;20470;-63
2022/04/05 07:39:23;;;;;;;100.38;89.75;;;819.30;793.60;;;;;;5050592;28;20128;-64
2022/04/05 07:41:49;;;;;;;78.47;70.20;;;819.60;768.00;;;;;;5050587;28;20033;-55
2022/04/05 07:44:15;;;;;;;69.63;62.25;;;794.50;793.60;;;;;;5050218;28;20033;-61
2022/04/05 07:46:41;;;;;;;60.88;52.20;;;819.30;768.00;;;;;;5050581;28;20067;-63
2022/04/05 07:49:07;;;;;;;61.15;54.80;;;819.60;742.40;;;;;;5047130;28;20060;-57
2022/04/05 07:51:33;;;;;;;31.23;26.10;;;844.90;768.00;;;;;;5048260;28;20064;-56
2022/04/05 07:53:59;;;;;;;34.00;30.38;;;845.10;742.40;;;;;;5039281;28;20542;-65
2022/04/05 07:56:25;;;;;;;31.45;27.80;;;820.10;716.80;;;;;;5040603;28;20068;-65
2022/04/05 07:58:50;;;;;;;42.28;38.08;;;845.60;716.80;;;;;;5038254;28;20030;-56
2022/04/05 08:01:16;;;;;;;34.05;30.50;;;871.00;691.20;;;;;;5039263;28;20379;-65
2022/04/05 08:03:42;;;;;;;26.80;24.30;;;921.80;665.60;;;;;;5038091;28;20028;-66
2022/04/05 08:06:08;;;;;;;27.05;24.45;;;870.80;665.60;;;;;;5038369;28;20483;-56
2022/04/05 08:08:34;;;;;;;25.00;22.35;;;845.60;691.20;;;;;;5042367;28;20060;-65
2022/04/05 08:11:00;;;;;;;19.60;17.30;;;845.40;691.20;;;;;;5038158;28;20131;-66
2022/04/05 08:13:28;;;;;;;18.60;16.67;;;845.70;665.60;;;;;;5035763;28;20060;-66
2022/04/05 08:15:55;;;;;;;21.30;18.88;;;896.80;614.40;;;;;;5039885;28;20106;-55
2022/04/05 08:18:21;;;;;;;18.65;16.85;;;870.70;640.00;;;;;;5040546;28;20384;-65
2022/04/05 08:20:48;;;;;;;22.60;20.50;;;896.80;614.40;;;;;;5038623;28;20029;-65
2022/04/05 08:23:13;;;;;;;20.20;18.17;;;896.80;614.40;;;;;;5029907;28;20025;-56
2022/04/05 08:25:39;;;;;;;41.78;37.45;;;921.60;640.00;;;;;;5030140;28;20375;-65
2022/04/05 08:28:06;;;;;;;26.23;23.83;;;921.70;614.40;;;;;;5029898;28;20033;-65
2022/04/05 08:30:32;;;;;;;16.35;14.85;;;896.20;614.40;;;;;;5029997;28;20480;-58
2022/04/05 08:32:58;;;;;;;11.43;10.38;;;871.00;614.40;;;;;;5029967;28;20033;-57
2022/04/05 08:35:24;;;;;;;6.75;6.15;;;921.60;614.40;;;;;;5029602;28;20025;-56
2022/04/05 08:37:52;;;;;;;6.30;5.70;;;922.30;588.80;;;;;;5029917;28;20025;-57
2022/04/05 08:40:22;;;;;;;6.68;6.07;;;947.20;563.20;;;;;;5029928;28;20033;-57
2022/04/05 08:42:50;;;;;;;8.35;7.03;;;896.60;563.20;;;;;;5030095;28;20061;-65
2022/04/05 08:45:18;;;;;;;7.88;7.18;;;845.70;614.40;;;;;;5029751;28;20049;-63
2022/04/05 08:48:05;;;;;;;7.38;6.68;;;845.70;640.00;;;;;;5029693;28;20475;-61
2022/04/05 08:50:32;;;;;;;5.82;5.32;;;820.10;665.60;;;;;;5029742;28;20033;-60
2022/04/05 08:53:00;;;;;;;5.70;5.10;;;768.00;716.80;;;;;;5029759;28;20021;-59
2022/04/05 08:55:28;;;;;;;8.13;6.38;;;742.50;742.40;;;;;;5029808;28;20030;-61
2022/04/05 08:57:55;;;;;;;5.60;3.60;;;691.50;742.40;;;;;;5034717;28;20493;-60
2022/04/05 09:00:23;;;;;;;5.93;4.63;;;589.70;793.60;;;;;;5044248;28;20479;-59
2022/04/05 09:03:07;;;;;;;5.35;3.65;;;614.50;819.20;;;;;;5049732;28;20616;-59
2022/04/05 09:05:40;;;;;;;4.60;3.83;;;589.20;844.80;;;;;;5049638;28;20091;-59
2022/04/05 09:08:21;;;;;;;4.75;3.83;;;563.80;870.40;;;;;;5049838;28;20025;-59
2022/04/05 09:10:53;;;;;;;6.57;3.80;;;563.70;921.60;;;;;;5049332;28;20050;-59
2022/04/05 09:13:25;;;;;;;4.05;2.60;;;563.30;896.00;;;;;;5049536;28;20092;-59
2022/04/05 09:15:53;;;;;;;5.07;3.28;;;537.90;896.00;;;;;;5049510;28;20383;-59
2022/04/05 09:18:32;;;;;;;4.63;3.65;;;512.90;870.40;;;;;;5049645;28;20479;-61
2022/04/05 09:20:58;;;;;;;5.45;3.47;;;537.80;921.60;;;;;;5049579;28;20064;-60
2022/04/05 09:23:25;;;;;;;5.22;4.07;;;537.80;921.60;;;;;;5049301;28;20106;-60
2022/04/05 09:25:58;;;;;;;5.68;2.92;;;512.80;896.00;;;;;;5049527;28;20025;-60
2022/04/05 09:28:29;;;;;;;4.68;3.20;;;512.80;921.60;;;;;;5052354;28;20052;-60
2022/04/05 09:31:00;;;;;;;4.55;3.05;;;512.90;921.60;;;;;;5052786;28;20037;-60
2022/04/05 09:33:29;;;;;;;8.38;4.00;;;512.70;921.60;;;;;;5052985;28;20021;-60
2022/04/05 09:36:08;;;;;;;5.82;3.70;;;512.50;921.60;;;;;;5053023;28;20103;-62
2022/04/05 09:38:35;;;;;;;6.97;3.95;;;512.30;1024.00;;;;;;5052971;28;20430;-60
2022/04/05 09:41:18;;;;;;;5.57;3.67;;;512.40;947.20;;;;;;5052967;28;20044;-61
2022/04/05 09:43:53;;;;;;;9.02;4.30;;;512.40;947.20;;;;;;5052965;28;20039;-60
2022/04/05 09:46:19;;;;;;;7.53;5.57;;;487.30;972.80;;;;;;5052737;28;20037;-62
2022/04/05 09:48:46;;;;;;;8.73;5.28;;;487.20;947.20;;;;;;5052644;28;20025;-61
2022/04/05 09:51:18;;;;;;;4.55;2.75;;;487.00;972.80;;;;;;5052670;28;20025;-60
2022/04/05 09:53:54;;;;;;;12.40;6.80;;;487.30;998.40;;;;;;5052405;28;20041;-60
2022/04/05 09:56:20;;;;;;;7.88;5.22;;;487.30;972.80;;;;;;5052833;28;20029;-62
2022/04/05 09:58:47;;;;;;;9.43;4.63;;;487.30;972.80;;;;;;5052337;28;20106;-60
2022/04/05 10:01:14;;;;;;;6.93;4.35;;;487.20;998.40;;;;;;5049173;28;20116;-60
2022/04/05 10:03:54;;;;;;;7.18;4.90;;;487.00;972.80;;;;;;5050680;28;20530;-62
2022/04/05 10:06:21;;;;;;;6.40;4.70;;;487.20;998.40;;;;;;5050799;28;20078;-62
2022/04/05 10:08:48;;;;;;;16.17;6.13;;;486.60;998.40;;;;;;5050657;28;20044;-62
2022/04/05 10:11:14;;;;;;;9.25;6.32;;;461.60;1024.00;;;;;;5050874;28;20033;-61
2022/04/05 10:13:40;;;;;;;7.85;5.82;;;486.50;1024.00;;;;;;5050789;28;20383;-62
2022/04/05 10:16:08;;;;;;;11.55;5.03;;;461.70;1024.00;;;;;;5050039;28;20395;-61
2022/04/05 10:18:35;;;;;;;8.73;6.60;;;461.70;1024.00;;;;;;5050500;28;20052;-61
2022/04/05 10:21:03;;;;;;;10.93;5.38;;;461.70;1024.00;;;;;;5050615;28;20112;-62
2022/04/05 10:23:31;;;;;;;9.00;5.97;;;461.40;1024.00;;;;;;5050901;28;20025;-61
2022/04/05 10:25:58;;;;;;;8.35;5.05;;;461.20;1049.60;;;;;;5042396;28;20029;-61
2022/04/05 10:28:28;;;;;;;5.07;3.92;;;460.80;1049.60;;;;;;5034554;28;20045;-62
2022/04/05 10:31:20;;;;;;;8.52;5.03;;;461.30;1024.00;;;;;;5046351;28;20387;-60
2022/04/05 10:34:05;;;;;;;5.45;4.00;;;461.00;1024.00;;;;;;5037716;28;20454;-59
2022/04/05 10:36:32;;;;;;;8.65;6.22;;;461.40;1049.60;;;;;;5039601;28;20479;-62
2022/04/05 10:39:18;;;;;;;9.13;5.05;;;461.20;1049.60;;;;;;5036113;28;20037;-60
2022/04/05 10:42:04;;;;;;;8.63;4.78;;;461.00;1075.20;;;;;;5036191;28;20541;-61
2022/04/05 10:44:30;;;;;;;7.57;4.43;;;461.30;1049.60;;;;;;5034878;28;20033;-60
2022/04/05 10:47:01;;;;;;;6.70;4.65;;;461.10;1075.20;;;;;;5036490;28;20151;-62
2022/04/05 10:49:42;;;;;;;7.30;4.75;;;461.00;1075.20;;;;;;5037235;28;20087;-61
2022/04/05 10:52:35;;;;;;;7.97;4.82;;;461.20;1075.20;;;;;;5037199;28;20064;-61
2022/04/05 10:55:01;;;;;;;5.18;3.83;;;461.50;1126.40;;;;;;5034008;28;20443;-61
2022/04/05 10:57:32;;;;;;;7.43;5.20;;;461.50;1152.00;;;;;;5036857;28;20060;-62
2022/04/05 11:00:33;;;;;;;8.63;5.03;;;486.40;1126.40;;;;;;5035820;28;20036;-61
2022/04/05 11:02:59;;;;;;;8.18;5.05;;;486.50;1100.80;;;;;;4947701;28;20035;-60
2022/04/05 11:05:27;;;;;;;8.23;4.95;;;461.70;1049.60;;;;;;4948043;29;20035;-60
2022/04/05 11:07:59;;;;;;;13.65;5.55;;;461.60;1075.20;;;;;;4947053;29;20044;-62
2022/04/05 11:10:45;;;;;;;8.52;4.95;;;461.60;1075.20;;;;;;4954514;28;20122;-61
2022/04/05 11:13:17;;;;;;;14.45;9.18;;;461.40;1075.20;;;;;;4968791;28;20026;-62
2022/04/05 11:15:56;;;;;;;20.13;10.57;;;461.40;1100.80;;;;;;4968667;28;20392;-60
2022/04/05 11:18:33;;;;;;;10.55;6.95;;;460.90;1100.80;;;;;;4967350;28;20029;-61
2022/04/05 11:21:00;;;;;;;10.43;7.40;;;461.20;1075.20;;;;;;4966864;28;20525;-62
2022/04/05 11:23:53;;;;;;;9.25;6.28;;;461.40;1075.20;;;;;;4968526;28;20433;-62
2022/04/05 11:26:35;;;;;;;5.70;4.68;;;461.20;1075.20;;;;;;4968677;28;20591;-59
2022/04/05 11:29:17;;;;;;;13.23;8.23;;;461.60;1177.60;;;;;;4967005;28;20126;-62
2022/04/05 11:31:42;;;;;;;21.92;14.07;;;461.60;1126.40;;;;;;4967139;28;20042;-61
2022/04/05 11:34:37;;;;;;;9.68;6.90;;;461.50;1075.20;;;;;;4968371;28;20526;-61
2022/04/05 11:37:06;;;;;;;11.77;7.63;;;461.70;1100.80;;;;;;4967259;28;20051;-60
2022/04/05 11:39:39;;;;;;;11.10;7.72;;;461.70;1100.80;;;;;;5007744;28;20035;-61
2022/04/05 11:42:06;;;;;;;10.73;7.47;;;461.70;1049.60;;;;;;5039885;28;20025;-62
2022/04/05 11:44:32;;;;;;;14.43;8.65;;;461.60;1049.60;;;;;;5041220;28;20104;-60
2022/04/05 11:47:00;;;;;;;8.98;5.07;;;461.70;1075.20;;;;;;5050440;28;20382;-60
2022/04/05 11:49:25;;;;;;;10.70;5.53;;;486.50;1049.60;;;;;;5049808;28;20029;-60
2022/04/05 11:51:52;;;;;;;9.90;6.13;;;486.70;1126.40;;;;;;5050419;28;20025;-60
2022/04/05 11:54:27;;;;;;;8.32;5.10;;;486.70;1049.60;;;;;;5050525;28;20056;-60
2022/04/05 11:57:02;;;;;;;17.52;9.98;;;486.80;1100.80;;;;;;5050055;28;20028;-60
2022/04/05 11:59:28;;;;;;;8.55;4.82;;;487.00;1075.20;;;;;;5050198;28;20087;-60
2022/04/05 12:01:54;;;;;;;7.95;5.32;;;486.60;1024.00;;;;;;5050120;28;20021;-62
2022/04/05 12:04:22;;;;;;;13.73;6.28;;;486.80;1024.00;;;;;;5050363;28;20064;-60
2022/04/05 12:06:53;;;;;;;11.30;7.53;;;486.90;1049.60;;;;;;5050370;28;20029;-60
2022/04/05 12:09:20;;;;;;;12.88;6.95;;;486.90;1100.80;;;;;;5050179;28;20057;-60
2022/04/05 12:11:48;;;;;;;13.70;8.80;;;487.10;1100.80;;;;;;5049826;28;20048;-60
2022/04/05 12:14:16;;;;;;;10.90;7.57;;;486.80;1024.00;;;;;;5049679;28;20395;-61
2022/04/05 12:16:46;;;;;;;12.77;8.38;;;486.50;1024.00;;;;;;5050253;28;20025;-60